This is the latest recevied weather packets stored in our database for station/object YO6IKB-10. If no packets are shown the sender has not sent any weather packets the latest 10 day(s).
| Time | Temp. | Humidity | Pressure | Rain* | Wind** | Luminosity | Snow |
|---|---|---|---|---|---|---|---|
| 1778001789 | 22.22° C | 39% | 1008.2 hPa | 0 mm | - | - | - |
| 1778001489 | 22.78° C | 37% | 1008.2 hPa | 0 mm | - | - | - |
| 1778001188 | 23.33° C | 38% | 1008.2 hPa | 0 mm | - | - | - |
| 1778000888 | 23.33° C | 38% | 1008.2 hPa | 0 mm | - | - | - |
| 1778000588 | 23.33° C | 38% | 1008.2 hPa | 0 mm | - | - | - |
| 1777999687 | 23.89° C | 37% | 1008.2 hPa | 0 mm | - | - | - |
| 1777999086 | 23.89° C | 37% | 1008.2 hPa | 0 mm | - | - | - |
| 1777998786 | 23.89° C | 36% | 1008.2 hPa | 0 mm | - | - | - |
| 1777998486 | 23.89° C | 36% | 1008.2 hPa | 0 mm | - | - | - |
| 1777998185 | 23.89° C | 37% | 1008.2 hPa | 0 mm | - | - | - |
| 1777997885 | 23.89° C | 36% | 1008.2 hPa | 0 mm | - | - | - |
| 1777997585 | 24.44° C | 34% | 1008.2 hPa | 0 mm | - | - | - |
| 1777997284 | 24.44° C | 34% | 1008.2 hPa | 0 mm | - | - | - |
| 1777996684 | 25° C | 33% | 1008.2 hPa | 0 mm | - | - | - |
| 1777996384 | 25° C | 33% | 1008.2 hPa | 0 mm | - | - | - |
| 1777995483 | 26.67° C | 30% | 1008.2 hPa | 0 mm | - | - | - |
| 1777995182 | 28.33° C | 30% | 1008.3 hPa | 0 mm | - | - | - |
| 1777994882 | 29.44° C | 30% | 1008.2 hPa | 0 mm | - | - | - |
| 1777994582 | 30.56° C | 29% | 1008.3 hPa | 0 mm | - | - | - |
| 1777994281 | 31.11° C | 28% | 1008.3 hPa | 0 mm | - | - | - |
| 1777993981 | 31.67° C | 28% | 1008.4 hPa | 0 mm | - | - | - |
| 1777993681 | 31.11° C | 29% | 1008.4 hPa | 0 mm | - | - | - |
| 1777993381 | 30.56° C | 29% | 1008.6 hPa | 0 mm | - | - | - |
| 1777993080 | 29.44° C | 32% | 1008.8 hPa | 0 mm | - | - | - |
| 1777992780 | 28.89° C | 32% | 1008.8 hPa | 0 mm | - | - | - |
* Rain latest hour (hover to see other rain measurements)
** Current wind speed in m/s (hover to see current wind gust speed)